METAR Data
IDs: Format: Raw Decoded Include TAF

Data at: 1725 UTC 16 Oct 2021

KDAL 161653Z 02007KT 340V090 10SM FEW250 20/04 A3040 RMK AO2 SLP289 T02000039
KDAL 161553Z VRB05KT 10SM FEW250 18/06 A3040 RMK AO2 SLP290 T01830061
KDAL 161453Z 33006KT 10SM FEW250 16/07 A3039 RMK AO2 SLP288 T01610067 53019
KDAL 161353Z 32007KT 10SM FEW250 13/07 A3037 RMK AO2 SLP282 T01280072
KDAL 161253Z 33005KT 10SM FEW250 11/07 A3035 RMK AO2 SLP274 T01110072
KDAL 161153Z 00000KT 10SM CLR 10/07 A3033 RMK AO2 SLP268 T01000072 10150 20094 53010
KDAL 161053Z 34003KT 10SM CLR 09/07 A3031 RMK AO2 SLP262 T00940067
KDAL 160953Z 35004KT 10SM CLR 11/07 A3031 RMK AO2 SLP260 T01110072
KDAL 160853Z 35005KT 10SM CLR 11/07 A3030 RMK AO2 SLP257 T01110067 51010
KDAL 160753Z 34005KT 10SM CLR 11/07 A3030 RMK AO2 SLP257 T01110067
KDAL 160653Z 34005KT 10SM CLR 12/07 A3029 RMK AO2 SLP255 T01170067
KDAL 160553Z 00000KT 10SM CLR 15/06 A3027 RMK AO2 SLP247 T01500061 10200 20144 402440144 51022
KDAL 160453Z 36007KT 10SM CLR 16/06 A3026 RMK AO2 SLP242 T01560061
KDAL 160353Z COR 35010KT 10SM CLR 16/06 A3024 RMK AO2 SLP235 T01610061
KDAL 160253Z 35009KT 10SM CLR 17/06 A3021 RMK AO2 SLP225 T01720061 51029
KDAL 160153Z 36007G21KT 10SM CLR 18/06 A3019 RMK AO2 SLP218 T01830061
KDAL 160053Z 35012G25KT 10SM CLR 19/07 A3015 RMK AO2 PK WND 04027/0043 SLP207 T01890067
KDAL 152353Z 34010G20KT 290V010 10SM FEW040 FEW250 20/07 A3012 RMK AO2 PK WND 35030/2254 SLP194 T02000072 10239 20200 53024
KDAL 152253Z 34019G26KT 10SM FEW040 FEW250 22/09 A3009 RMK AO2 PK WND 35026/2156 SLP183 T02170089
KDAL 152153Z 34015G23KT 10SM FEW040 FEW250 23/11 A3006 RMK AO2 PK WND 36029/2126 SLP174 T02330106
KDAL 152053Z 35013G28KT 10SM FEW030 FEW040 24/12 A3005 RMK AO2 PK WND 02033/2025 SLP170 T02390122 53011
KDAL 151953Z 33018G27KT 10SM FEW025 SCT030 23/14 A3003 RMK AO2 PK WND 32031/1930 SLP164 T02330139
KDAL 151932Z 33019G31KT 10SM SCT025 BKN030 22/14 A3003 RMK AO2 PK WND 32031/1930 T02220144
KDAL 151853Z 33017G25KT 10SM OVC023 22/16 A3003 RMK AO2 PK WND 36030/1832 SLP162 BINOVC T02170156
KDAL 151816Z 34016G26KT 10SM BKN021 BKN038 23/17 A3002 RMK AO2 PK WND 33026/1802 T02330167
KDAL 151753Z 31015G27KT 10SM SCT022 BKN038 23/17 A3002 RMK AO2 PK WND 34034/1714 SLP159 T02330172 10244 20211 51026
KDAL 151720Z 33015G34KT 10SM FEW016 SCT022 BKN035 23/18 A3001 RMK AO2 PK WND 34034/1714 T02280178
KDAL 151653Z 31013G24KT 10SM BKN018 OVC030 23/19 A3000 RMK AO2 SLP152 T02280189
KDAL 151553Z 29016G21KT 10SM BKN020 BKN029 23/19 A2996 RMK AO2 SLP140 T02280189
KDAL 151516Z 26008KT 10SM BKN016 BKN022 OVC027 23/19 A2995 RMK AO2 OCNL BINOVC T02330194
KDAL 151453Z 27009KT 10SM BKN013 OVC024 23/20 A2994 RMK AO2 SLP131 T02280200 53027 $
KDAL 151353Z 22008KT 10SM BKN010 BKN016 22/21 A2991 RMK AO2 SLP122 CIG 009V012 T02170206 $
KDAL 151320Z 22004KT 10SM FEW006 BKN012 22/21 A2990 RMK AO2 BKN V OVC T02170206 $
KDAL 151253Z 18004KT 10SM FEW005 FEW010 FEW028 21/21 A2988 RMK AO2 SLP110 T02110206 $
KDAL 151153Z 16007KT 10SM FEW005 FEW010 21/20 A2986 RMK AO2 SLP104 T02110200 10228 20206 51008 $
KDAL 151124Z 16004KT 10SM FEW005 FEW010 21/20 A2986 RMK AO2 T02110200 $
KDAL 151053Z 17005KT 10SM BKN005 21/21 A2986 RMK AO2 SLP103 T02110206 $
KDAL 151031Z 18006KT 10SM FEW008 21/21 A2985 RMK AO2 T02110206 $
KDAL 150953Z 18005KT 10SM FEW010 22/21 A2984 RMK AO2 SLP098 T02170206
KDAL 150853Z VRB05KT 10SM FEW010 21/21 A2983 RMK AO2 SLP096 T02110206 55001
KDAL 150753Z 17006KT 10SM CLR 22/21 A2983 RMK AO2 SLP096 T02170206
KDAL 150653Z 17007KT 10SM CLR 22/21 A2983 RMK AO2 SLP094 T02220206
KDAL 150553Z 16006KT 10SM FEW010 FEW250 23/21 A2984 RMK AO2 SLP097 T02280211 10272 20228 402890194 58002